Time;durP1;ratioP1;P1;durP2;ratioP2;P2;SDS_P1;SDS_P2;PMS_P1;PMS_P2;Temp;Humidity;BMP_temperature;BMP_pressure;BME280_temperature;BME280_humidity;BME280_pressure;Samples;Min_cycle;Max_cycle;Signal;HPM_P1;HPM_P2
2023/10/14 00:00:26;;;;;;;6.88;3.78;;;;;;;13.15;58.40;95197.19;5071549;28;20088;-77
2023/10/14 00:02:52;;;;;;;13.07;4.55;;;;;;;12.66;58.80;95132.81;5090046;28;20039;-76
2023/10/14 00:05:20;;;;;;;9.45;4.25;;;;;;;12.99;59.04;95196.88;5090832;28;20028;-76
2023/10/14 00:07:45;;;;;;;8.68;4.60;;;;;;;12.93;59.35;95195.63;5089380;28;20424;-76
2023/10/14 00:10:12;;;;;;;7.25;3.97;;;;;;;12.78;59.97;95194.31;5067228;28;20039;-77
2023/10/14 00:12:39;;;;;;;5.90;4.25;;;;;;;12.79;59.87;95195.97;5069811;28;20039;-76
2023/10/14 00:15:06;;;;;;;7.88;4.22;;;;;;;12.73;60.63;95189.50;5069341;28;20524;-76
2023/10/14 00:17:41;;;;;;;9.13;4.38;;;;;;;12.68;60.36;95183.84;5060380;28;20037;-76
2023/10/14 00:20:09;;;;;;;7.70;4.50;;;;;;;12.64;60.16;95166.00;5054091;28;20082;-76
2023/10/14 00:22:38;;;;;;;10.05;4.30;;;;;;;12.58;60.21;95153.50;5069293;28;20119;-76
2023/10/14 00:25:09;;;;;;;7.50;4.70;;;;;;;12.66;60.13;95170.13;5069123;28;20406;-75
2023/10/14 00:27:35;;;;;;;6.20;4.38;;;;;;;12.66;60.41;95180.53;5089144;28;20107;-75
2023/10/14 00:30:09;;;;;;;5.72;4.20;;;;;;;12.52;60.69;95165.25;5072511;28;20036;-75
2023/10/14 00:32:35;;;;;;;6.55;4.47;;;;;;;12.56;60.79;95173.63;5077580;28;20042;-75
2023/10/14 00:35:03;;;;;;;5.93;3.88;;;;;;;12.53;61.02;95175.53;5091591;28;20020;-75
2023/10/14 00:37:32;;;;;;;8.68;4.55;;;;;;;12.45;61.34;95172.78;5093170;28;20525;-75
2023/10/14 00:40:10;;;;;;;6.30;4.13;;;;;;;12.45;61.23;95175.38;5094272;28;20028;-75
2023/10/14 00:42:36;;;;;;;8.50;4.57;;;;;;;12.50;61.34;95181.00;5078087;28;20123;-75
2023/10/14 00:45:09;;;;;;;7.20;4.30;;;;;;;12.51;60.97;95171.44;5091374;28;20040;-75
2023/10/14 00:47:44;;;;;;;9.20;4.22;;;;;;;12.57;61.33;95173.53;5061298;28;20036;-76
2023/10/14 00:52:57;;;;;;;6.90;4.47;;;;;;;12.39;61.10;95155.03;5091626;28;20123;-76
2023/10/14 00:55:36;;;;;;;5.85;4.13;;;;;;;12.35;61.17;95168.47;5092873;28;20086;-76
2023/10/14 00:58:01;;;;;;;11.25;4.65;;;;;;;12.45;60.74;95164.97;5092997;28;20061;-76
2023/10/14 01:00:38;;;;;;;7.45;4.20;;;;;;;12.43;60.75;95151.25;5058841;28;20048;-75
2023/10/14 01:03:07;;;;;;;7.57;4.75;;;;;;;12.48;60.34;95159.50;5057859;28;20025;-76
2023/10/14 01:05:35;;;;;;;5.57;3.60;;;;;;;12.47;59.85;95157.00;5072297;28;20046;-76
2023/10/14 01:08:11;;;;;;;7.72;3.72;;;;;;;12.52;59.04;95150.44;5056056;28;20039;-76
2023/10/14 01:10:39;;;;;;;7.07;3.80;;;;;;;12.36;59.31;95146.66;5057758;28;20052;-76
2023/10/14 01:13:13;;;;;;;8.98;3.78;;;;;;;12.28;59.34;95153.34;5076007;28;20028;-76
2023/10/14 01:15:44;;;;;;;5.25;3.20;;;;;;;12.28;59.24;95150.72;5093722;28;20162;-76
2023/10/14 01:18:11;;;;;;;6.80;3.67;;;;;;;12.23;59.30;95152.06;5076491;28;20028;-76
2023/10/14 01:20:39;;;;;;;6.20;3.78;;;;;;;11.95;59.67;95130.13;5091356;28;20531;-76
2023/10/14 01:23:08;;;;;;;7.25;3.58;;;;;;;12.10;59.04;95151.47;5093774;28;20066;-76
2023/10/14 01:25:39;;;;;;;5.97;3.55;;;;;;;12.00;59.79;95141.81;5075936;28;20545;-76
2023/10/14 01:28:11;;;;;;;5.53;3.30;;;;;;;12.06;59.78;95143.06;5076619;28;20028;-76
2023/10/14 01:30:41;;;;;;;6.15;4.00;;;;;;;11.76;60.93;95136.84;5090717;28;20050;-76
2023/10/14 01:33:16;;;;;;;5.07;3.28;;;;;;;11.71;60.41;95135.56;5075930;28;20501;-76
2023/10/14 01:35:51;;;;;;;7.78;3.65;;;;;;;11.58;60.71;95133.94;5093179;28;20039;-76
2023/10/14 01:38:17;;;;;;;5.57;3.58;;;;;;;11.37;61.81;95139.13;5075745;28;20027;-76
2023/10/14 01:40:54;;;;;;;6.95;3.88;;;;;;;11.22;61.77;95110.94;5075107;28;20061;-76
2023/10/14 01:43:24;;;;;;;7.10;3.90;;;;;;;11.13;62.44;95141.09;5076723;28;20055;-76
2023/10/14 01:48:21;;;;;;;;;;;;;;;11.22;61.79;95142.13;5091243;28;20032;-76
2023/10/14 01:50:54;;;;;;;4.72;3.25;;;;;;;11.09;62.28;95139.72;5091717;28;19919;-76
2023/10/14 01:53:23;;;;;;;6.55;3.55;;;;;;;11.04;62.46;95137.47;5059358;28;20063;-76
2023/10/14 01:55:52;;;;;;;4.60;3.17;;;;;;;11.01;62.81;95131.69;5073394;28;20028;-76
2023/10/14 01:58:30;;;;;;;7.65;4.20;;;;;;;11.10;62.74;95142.16;5075030;28;20067;-76
2023/10/14 02:01:18;;;;;;;5.00;3.70;;;;;;;11.03;62.63;95125.44;5061342;28;20056;-76
2023/10/14 02:03:48;;;;;;;6.72;3.78;;;;;;;11.04;62.77;95142.66;5077680;28;20032;-76
2023/10/14 02:06:16;;;;;;;6.63;3.83;;;;;;;10.86;63.76;95144.09;5090317;28;20111;-76
2023/10/14 02:08:44;;;;;;;7.90;3.70;;;;;;;10.89;63.43;95139.50;5058761;28;20055;-75
2023/10/14 02:11:09;;;;;;;6.85;3.70;;;;;;;10.85;63.60;95137.28;5077542;28;20074;-76
2023/10/14 02:13:36;;;;;;;6.80;3.67;;;;;;;10.92;64.05;95133.22;5073607;28;20032;-76
2023/10/14 02:16:08;;;;;;;5.85;4.00;;;;;;;10.94;64.29;95134.75;5070154;28;20028;-76
2023/10/14 02:18:36;;;;;;;5.53;3.70;;;;;;;10.96;64.40;95132.03;5054990;28;20072;-76
2023/10/14 02:21:11;;;;;;;5.45;3.88;;;;;;;11.23;64.10;95125.56;5070976;28;20036;-76
2023/10/14 02:23:45;;;;;;;6.15;3.97;;;;;;;11.18;63.71;95137.19;5061287;28;20123;-76
2023/10/14 02:26:24;;;;;;;5.75;3.50;;;;;;;11.08;63.99;95131.06;5059292;28;20107;-76
2023/10/14 02:28:52;;;;;;;6.80;3.85;;;;;;;11.08;64.31;95120.66;5091325;28;20039;-76
2023/10/14 02:31:28;;;;;;;6.38;4.03;;;;;;;11.11;64.29;95127.38;5074362;28;20210;-77
2023/10/14 02:33:57;;;;;;;6.45;4.10;;;;;;;11.21;63.96;95123.13;5091113;28;20031;-76
2023/10/14 02:36:29;;;;;;;8.68;4.28;;;;;;;11.10;64.13;95118.78;5074368;28;20111;-76
2023/10/14 02:38:54;;;;;;;7.55;4.10;;;;;;;11.14;64.24;95127.16;5074887;28;20482;-76
2023/10/14 02:41:20;;;;;;;7.10;3.65;;;;;;;11.06;64.34;95114.78;5072393;28;20032;-76
2023/10/14 02:43:49;;;;;;;6.20;3.97;;;;;;;11.12;64.24;95116.88;5057346;28;20181;-76
2023/10/14 02:46:20;;;;;;;10.18;4.13;;;;;;;11.03;64.29;95093.38;5074252;28;20031;-76
2023/10/14 02:48:53;;;;;;;9.23;3.97;;;;;;;11.10;64.44;95126.56;5057399;28;20038;-77
2023/10/14 02:51:29;;;;;;;5.97;4.15;;;;;;;11.23;64.23;95120.38;5089014;28;20032;-77
2023/10/14 02:53:56;;;;;;;5.43;3.95;;;;;;;11.19;64.38;95119.81;5091712;28;20028;-76
2023/10/14 02:56:32;;;;;;;5.82;4.10;;;;;;;11.27;63.93;95127.81;5090437;28;20110;-77
2023/10/14 02:58:58;;;;;;;7.22;3.95;;;;;;;11.17;64.22;95125.16;5075388;28;20032;-76
2023/10/14 03:01:31;;;;;;;7.15;4.10;;;;;;;11.24;64.23;95115.06;5089227;28;20570;-76
2023/10/14 03:03:57;;;;;;;7.38;4.40;;;;;;;11.06;63.98;95093.13;5075010;28;20059;-77
2023/10/14 03:06:22;;;;;;;6.93;3.92;;;;;;;11.02;64.22;95105.56;5090415;28;20051;-77
2023/10/14 03:08:57;;;;;;;6.78;3.70;;;;;;;11.06;64.47;95122.59;5067783;28;20483;-77
2023/10/14 03:11:25;;;;;;;5.90;4.20;;;;;;;10.98;64.43;95124.97;5070065;28;20040;-77
2023/10/14 03:13:51;;;;;;;6.80;4.18;;;;;;;11.07;64.14;95124.22;5053778;28;20562;-77
2023/10/14 03:16:17;;;;;;;4.88;3.65;;;;;;;11.03;64.07;95116.78;5053129;28;20119;-76
2023/10/14 03:18:44;;;;;;;5.68;3.97;;;;;;;10.87;64.65;95115.41;5061944;28;20033;-77
2023/10/14 03:21:21;;;;;;;6.70;4.07;;;;;;;11.05;64.41;95118.31;5071166;28;20039;-77
2023/10/14 03:23:46;;;;;;;9.05;4.10;;;;;;;11.12;64.03;95124.69;5072008;28;20131;-76
2023/10/14 03:26:12;;;;;;;6.55;4.28;;;;;;;11.03;64.22;95117.63;5070033;28;20036;-76
2023/10/14 03:28:38;;;;;;;5.47;4.03;;;;;;;10.83;64.66;95115.75;5090396;28;20028;-76
2023/10/14 03:31:08;;;;;;;10.95;4.40;;;;;;;10.85;64.78;95130.28;5089843;28;20088;-76
2023/10/14 03:33:42;;;;;;;8.40;4.10;;;;;;;10.93;64.30;95125.31;5091545;28;20089;-76
2023/10/14 03:36:07;;;;;;;8.82;4.10;;;;;;;10.78;64.77;95115.28;5068555;28;20063;-76
2023/10/14 03:41:19;;;;;;;7.57;4.00;;;;;;;10.82;64.88;95124.53;5068382;28;20037;-76
2023/10/14 03:43:58;;;;;;;7.07;3.97;;;;;;;10.83;64.70;95118.38;5069339;28;20033;-77
2023/10/14 03:46:34;;;;;;;6.50;4.13;;;;;;;10.67;64.96;95106.59;5039300;28;20040;-77
2023/10/14 03:49:06;;;;;;;6.30;4.28;;;;;;;10.74;64.94;95115.53;5069917;28;20079;-77
2023/10/14 03:51:31;;;;;;;6.43;4.20;;;;;;;10.85;64.89;95114.69;5069629;28;20491;-76
2023/10/14 03:53:58;;;;;;;8.90;4.03;;;;;;;10.85;64.57;95116.47;5052790;28;20066;-77
2023/10/14 03:56:25;;;;;;;8.15;4.75;;;;;;;10.84;64.70;95114.84;5070796;28;20510;-76
2023/10/14 03:58:55;;;;;;;7.18;4.45;;;;;;;10.84;64.46;95114.84;5052894;28;20039;-76
2023/10/14 04:01:23;;;;;;;8.07;4.13;;;;;;;10.93;64.20;95104.53;5053286;28;20053;-76
2023/10/14 04:03:52;;;;;;;7.00;3.75;;;;;;;10.77;64.00;95075.50;5069928;28;20081;-77
2023/10/14 04:06:19;;;;;;;7.90;4.28;;;;;;;10.89;64.16;95112.69;5073522;28;20032;-77
2023/10/14 04:08:48;;;;;;;7.15;4.55;;;;;;;10.76;64.69;95102.44;5056874;28;20123;-77
2023/10/14 04:11:15;;;;;;;6.57;4.30;;;;;;;10.64;64.76;95093.00;5087496;28;20027;-76
2023/10/14 04:16:27;;;;;;;6.80;4.22;;;;;;;10.68;64.33;95090.03;5094044;28;20085;-76
2023/10/14 04:19:01;;;;;;;8.10;4.00;;;;;;;10.80;63.85;95097.81;5094008;28;20032;-76
2023/10/14 04:21:35;;;;;;;6.45;3.70;;;;;;;10.79;63.95;95085.78;5077885;28;20020;-76
2023/10/14 04:26:35;;;;;;;6.15;3.45;;;;;;;10.84;63.93;95089.66;5093652;28;20031;-76
2023/10/14 04:29:03;;;;;;;6.20;3.70;;;;;;;10.90;63.36;95085.75;5095169;28;20044;-76
2023/10/14 04:31:39;;;;;;;6.72;3.85;;;;;;;10.76;63.66;95088.63;5060344;28;20036;-76
2023/10/14 04:34:10;;;;;;;6.47;4.05;;;;;;;10.76;63.53;95086.84;5095123;28;20028;-76
2023/10/14 04:39:17;;;;;;;6.13;4.22;;;;;;;10.60;64.07;95097.63;5093487;28;20368;-76
2023/10/14 04:42:22;;;;;;;8.00;4.30;;;;;;;10.75;63.05;95095.56;5078689;28;20086;-76
2023/10/14 04:44:59;;;;;;;12.95;4.25;;;;;;;10.78;63.37;95113.56;5093022;28;20116;-76
2023/10/14 04:47:36;;;;;;;6.95;3.85;;;;;;;10.71;63.41;95107.16;5063475;28;20493;-77
2023/10/14 04:50:10;;;;;;;6.25;3.67;;;;;;;10.65;63.77;95103.28;5093462;28;20032;-76
2023/10/14 04:52:37;;;;;;;6.25;3.85;;;;;;;10.52;64.24;95094.78;5076960;28;20032;-76
2023/10/14 04:58:11;;;;;;;10.10;4.00;;;;;;;10.45;64.94;95109.22;5093118;28;20042;-76
2023/10/14 05:00:38;;;;;;;8.68;3.83;;;;;;;10.50;65.07;95104.47;5091917;28;20426;-76
2023/10/14 05:03:05;;;;;;;6.13;4.00;;;;;;;10.38;65.11;95072.50;5076889;28;20035;-76
2023/10/14 05:05:33;;;;;;;7.10;3.88;;;;;;;10.45;65.05;95091.03;5093852;28;20110;-76
2023/10/14 05:07:59;;;;;;;5.95;4.15;;;;;;;10.59;64.75;95100.34;5090800;28;20105;-76
2023/10/14 05:10:28;;;;;;;6.13;4.82;;;;;;;10.63;64.18;95093.94;5067575;28;20486;-76
2023/10/14 05:12:54;;;;;;;7.45;3.95;;;;;;;10.84;63.85;95099.25;5039079;28;20031;-76
2023/10/14 05:15:20;;;;;;;7.00;4.60;;;;;;;10.66;64.27;95096.31;5081776;28;20086;-76
2023/10/14 05:18:00;;;;;;;6.82;4.60;;;;;;;10.82;63.98;95106.31;5091829;28;20032;-76
2023/10/14 05:20:54;;;;;;;7.30;3.92;;;;;;;10.73;64.18;95113.06;5076966;28;20393;-75
2023/10/14 05:23:19;;;;;;;8.43;4.18;;;;;;;10.61;64.15;95096.66;5092186;28;20081;-76
2023/10/14 05:25:57;;;;;;;7.55;3.78;;;;;;;10.46;64.41;95087.47;5076204;28;20028;-75
2023/10/14 05:28:29;;;;;;;7.55;3.72;;;;;;;10.69;63.98;95116.84;5092538;28;20059;-77
2023/10/14 05:31:00;;;;;;;5.47;3.55;;;;;;;10.84;63.51;95110.47;5051021;28;20039;-76
2023/10/14 05:33:27;;;;;;;8.65;3.90;;;;;;;10.92;63.58;95118.47;5087086;28;20055;-76
2023/10/14 05:35:56;;;;;;;6.75;3.53;;;;;;;10.96;63.30;95119.88;5074141;28;20532;-76
2023/10/14 05:38:22;;;;;;;5.10;3.53;;;;;;;10.75;63.67;95100.78;5074988;28;20056;-76
2023/10/14 05:40:48;;;;;;;5.28;3.70;;;;;;;10.94;63.27;95120.94;5090172;28;20031;-75
2023/10/14 05:43:13;;;;;;;4.80;3.67;;;;;;;10.99;63.22;95131.81;5083697;28;20070;-76
2023/10/14 05:45:39;;;;;;;5.50;3.47;;;;;;;10.82;63.08;95082.94;5075640;28;20460;-77
2023/10/14 05:48:07;;;;;;;5.18;3.67;;;;;;;11.00;63.29;95136.03;5082084;28;20047;-76
2023/10/14 05:50:33;;;;;;;5.55;3.80;;;;;;;11.14;62.97;95134.94;5071359;28;20048;-76
2023/10/14 05:52:59;;;;;;;6.65;3.80;;;;;;;11.15;62.78;95123.63;5076464;28;20123;-76
2023/10/14 05:55:26;;;;;;;5.72;3.58;;;;;;;11.21;62.72;95138.72;5071984;28;20041;-75
2023/10/14 05:57:51;;;;;;;6.50;4.00;;;;;;;11.31;62.57;95139.63;5082940;28;20478;-76
2023/10/14 06:00:23;;;;;;;10.65;4.03;;;;;;;10.91;63.53;95144.56;5059363;28;20169;-76
2023/10/14 06:02:49;;;;;;;6.07;3.72;;;;;;;10.88;63.44;95126.63;5055282;28;20032;-76
2023/10/14 06:05:16;;;;;;;5.43;3.75;;;;;;;11.04;63.00;95127.06;5068457;28;20028;-76
2023/10/14 06:07:46;;;;;;;8.10;3.78;;;;;;;11.44;62.49;95136.84;5089609;28;20070;-76
2023/10/14 06:10:13;;;;;;;8.05;3.53;;;;;;;11.60;61.63;95132.06;5085954;28;20032;-76
2023/10/14 06:12:39;;;;;;;5.47;3.60;;;;;;;11.90;61.42;95143.53;5090703;28;20028;-76
2023/10/14 06:15:09;;;;;;;7.13;3.35;;;;;;;12.03;61.07;95145.94;5055618;28;20040;-77
2023/10/14 06:17:38;;;;;;;6.15;3.50;;;;;;;12.39;60.52;95144.63;5088242;28;20032;-75
2023/10/14 06:20:07;;;;;;;4.95;3.45;;;;;;;13.31;57.79;95128.03;5087392;28;20040;-75
2023/10/14 06:22:33;;;;;;;7.80;3.97;;;;;;;13.98;55.60;95135.00;5070084;28;20028;-74
2023/10/14 06:24:58;;;;;;;8.73;3.92;;;;;;;15.26;52.77;95129.16;5056831;28;20509;-75
2023/10/14 06:27:24;;;;;;;7.78;3.40;;;;;;;16.27;48.47;95129.72;5087708;28;20136;-75
2023/10/14 06:29:50;;;;;;;5.88;3.67;;;;;;;16.74;46.85;95126.69;5054522;28;20041;-74
2023/10/14 06:32:16;;;;;;;6.82;4.00;;;;;;;17.59;45.59;95120.56;5080793;28;20032;-75
2023/10/14 06:34:42;;;;;;;5.57;3.90;;;;;;;18.85;42.55;95125.38;5058028;28;20032;-73
2023/10/14 06:37:07;;;;;;;9.30;4.10;;;;;;;19.81;40.74;95119.78;5082584;28;20498;-76
2023/10/14 06:39:40;;;;;;;5.00;3.50;;;;;;;20.42;39.09;95117.09;5083060;28;20119;-74
2023/10/14 06:42:05;;;;;;;5.80;4.00;;;;;;;21.29;37.66;95118.25;5076310;28;20021;-78
2023/10/14 06:44:32;;;;;;;5.90;3.50;;;;;;;22.36;35.30;95109.56;5064927;28;20422;-78
2023/10/14 06:46:58;;;;;;;4.00;3.10;;;;;;;22.88;34.98;95108.25;5071801;28;20108;-76
2023/10/14 06:49:32;;;;;;;5.47;3.40;;;;;;;23.72;32.91;95109.81;5069303;28;20430;-77
2023/10/14 06:51:58;;;;;;;4.75;3.38;;;;;;;24.30;32.06;95102.94;5089518;28;20036;-77
2023/10/14 06:54:26;;;;;;;6.07;3.35;;;;;;;24.59;31.10;95089.44;5089186;28;20035;-76
2023/10/14 06:56:53;;;;;;;8.02;4.00;;;;;;;25.15;29.89;95100.31;5079218;28;20041;-74
2023/10/14 06:59:19;;;;;;;10.30;3.83;;;;;;;25.29;29.46;95095.78;5061061;28;20063;-74
2023/10/14 07:01:44;;;;;;;7.18;3.72;;;;;;;24.78;29.92;95098.41;5083375;28;20052;-73
2023/10/14 07:04:12;;;;;;;8.52;3.85;;;;;;;25.52;29.14;95094.44;5083571;28;20036;-76
2023/10/14 07:06:38;;;;;;;7.60;3.63;;;;;;;24.83;29.68;95072.84;5078507;28;20036;-73
2023/10/14 07:09:08;;;;;;;11.05;3.67;;;;;;;26.08;28.06;95078.56;5081319;28;20058;-77
2023/10/14 07:11:34;;;;;;;9.55;3.70;;;;;;;26.35;27.77;95067.66;5079728;28;20040;-76
2023/10/14 07:13:59;;;;;;;8.20;3.88;;;;;;;27.00;27.25;95085.91;5087575;28;20027;-73
2023/10/14 07:16:25;;;;;;;9.82;3.58;;;;;;;26.20;27.59;95086.63;5056302;28;20039;-74
2023/10/14 07:18:50;;;;;;;10.23;4.63;;;;;;;25.11;29.59;95087.66;5087931;28;20020;-77
2023/10/14 07:21:15;;;;;;;5.50;3.13;;;;;;;26.50;27.89;95076.16;5082419;28;20033;-74
2023/10/14 07:23:41;;;;;;;9.85;3.92;;;;;;;26.26;28.16;95079.63;5082440;28;20478;-75
2023/10/14 07:26:11;;;;;;;7.22;4.00;;;;;;;26.22;27.74;95078.44;5059115;28;20486;-72
2023/10/14 07:28:42;;;;;;;9.45;4.25;;;;;;;26.73;27.34;95078.19;5082134;28;20074;-73
2023/10/14 07:31:08;;;;;;;10.45;4.15;;;;;;;27.51;26.66;95078.53;5091226;28;20040;-73
2023/10/14 07:33:36;;;;;;;6.00;3.83;;;;;;;27.30;26.77;95071.81;5084857;28;20425;-74
2023/10/14 07:36:06;;;;;;;7.72;4.05;;;;;;;25.99;28.72;95068.38;5087461;28;20472;-74
2023/10/14 07:38:33;;;;;;;11.15;4.10;;;;;;;26.88;27.34;95071.66;5088038;28;20044;-74
2023/10/14 07:41:01;;;;;;;9.90;4.07;;;;;;;26.79;27.73;95065.81;5071500;28;20506;-74
2023/10/14 07:43:26;;;;;;;7.53;4.18;;;;;;;26.67;27.62;95049.75;5088496;28;20081;-74
2023/10/14 07:45:52;;;;;;;9.18;4.40;;;;;;;27.24;26.83;95048.72;5070900;28;20448;-74
2023/10/14 07:48:19;;;;;;;7.75;4.07;;;;;;;27.05;26.99;95054.06;5070755;28;20043;-74
2023/10/14 07:50:46;;;;;;;7.00;4.00;;;;;;;26.83;27.25;95045.72;5089071;28;20073;-74
2023/10/14 07:53:15;;;;;;;8.93;4.75;;;;;;;26.39;27.96;95047.56;5070906;28;20035;-73
2023/10/14 07:55:47;;;;;;;11.50;5.10;;;;;;;25.74;28.74;95041.72;5071240;28;20032;-74
2023/10/14 07:58:14;;;;;;;8.30;4.35;;;;;;;25.16;28.57;95043.50;5071942;28;20039;-73
2023/10/14 08:00:49;;;;;;;6.65;3.95;;;;;;;25.53;28.76;95034.91;5072625;28;20131;-74
2023/10/14 08:03:16;;;;;;;9.40;3.78;;;;;;;24.18;30.35;95048.00;5074137;28;20051;-74
2023/10/14 08:05:43;;;;;;;9.60;3.65;;;;;;;23.35;31.61;95037.75;5089487;28;20035;-73
2023/10/14 08:08:09;;;;;;;9.57;3.97;;;;;;;23.73;31.15;95045.16;5056114;28;20086;-73
2023/10/14 08:10:45;;;;;;;9.23;4.10;;;;;;;23.68;31.45;95042.25;5072668;28;20511;-73
2023/10/14 08:13:11;;;;;;;8.82;4.32;;;;;;;23.19;32.27;95039.72;5089644;28;20028;-73
2023/10/14 08:15:37;;;;;;;6.57;3.88;;;;;;;22.53;33.54;95034.94;5072761;28;20163;-73
2023/10/14 08:18:05;;;;;;;7.72;3.92;;;;;;;22.34;33.58;95037.47;5072629;28;20081;-73
2023/10/14 08:20:34;;;;;;;7.00;3.85;;;;;;;22.24;33.73;95041.28;5089311;28;20047;-73
2023/10/14 08:23:00;;;;;;;9.63;3.58;;;;;;;20.51;36.47;95036.03;5072514;28;20115;-73
2023/10/14 08:25:26;;;;;;;13.35;3.60;;;;;;;21.06;36.70;95036.50;5072631;28;20108;-73
2023/10/14 08:27:52;;;;;;;6.28;3.40;;;;;;;20.94;35.39;95021.16;5089342;28;20026;-73
2023/10/14 08:30:19;;;;;;;12.20;3.72;;;;;;;20.94;36.24;95020.34;5072763;28;20490;-73
2023/10/14 08:32:46;;;;;;;8.15;3.92;;;;;;;20.62;36.53;95022.41;5089290;28;20028;-73
2023/10/14 08:35:15;;;;;;;10.32;4.10;;;;;;;20.43;37.37;95022.94;5089126;28;20036;-73
2023/10/14 08:37:48;;;;;;;9.57;3.95;;;;;;;20.49;36.77;95020.38;5089268;28;20036;-73
2023/10/14 08:40:17;;;;;;;9.30;3.55;;;;;;;20.30;37.80;95002.47;5072958;28;20032;-73
2023/10/14 08:42:50;;;;;;;6.10;3.75;;;;;;;20.49;37.99;95011.66;5089237;28;20036;-73
2023/10/14 08:45:22;;;;;;;8.85;4.20;;;;;;;20.30;38.69;95011.19;5089222;28;20024;-73
2023/10/14 08:47:52;;;;;;;9.85;4.18;;;;;;;20.35;38.70;95002.75;5089320;28;20082;-73
2023/10/14 08:50:23;;;;;;;8.50;4.20;;;;;;;20.24;38.76;94982.09;5056414;28;20066;-73
2023/10/14 08:52:56;;;;;;;6.00;3.97;;;;;;;20.51;38.13;94994.63;5092171;28;20024;-72
2023/10/14 08:55:21;;;;;;;12.50;4.65;;;;;;;20.38;38.31;94991.81;5093015;28;20036;-73
2023/10/14 08:57:48;;;;;;;8.55;4.10;;;;;;;20.21;38.64;94972.72;5059244;28;20471;-73
2023/10/14 09:00:19;;;;;;;8.07;4.13;;;;;;;20.23;38.69;94986.56;5075711;28;20542;-73
2023/10/14 09:02:44;;;;;;;;;;;;;;;20.25;38.54;94989.00;5077101;28;20067;-73
2023/10/14 09:05:11;;;;;;;7.70;3.60;;;;;;;20.30;38.56;94976.91;5093608;28;19923;-73
2023/10/14 09:07:38;;;;;;;10.60;3.72;;;;;;;20.18;38.68;94977.56;5076073;28;20044;-73
2023/10/14 09:10:05;;;;;;;9.35;4.18;;;;;;;20.22;38.93;94984.09;5075908;28;20409;-73
2023/10/14 09:12:30;;;;;;;13.77;4.53;;;;;;;20.23;39.59;94983.09;5058836;28;20123;-73
2023/10/14 09:14:55;;;;;;;12.48;4.13;;;;;;;20.22;39.43;94970.91;5092481;28;20024;-73
2023/10/14 09:17:21;;;;;;;10.40;4.55;;;;;;;20.21;39.54;94975.38;5093680;28;20064;-73
2023/10/14 09:19:47;;;;;;;10.68;4.55;;;;;;;20.40;39.28;94965.28;5093677;28;20035;-73
2023/10/14 09:22:20;;;;;;;9.15;4.47;;;;;;;20.24;39.27;94953.09;5092357;28;20506;-73
2023/10/14 09:24:48;;;;;;;9.70;4.32;;;;;;;20.42;39.15;94961.44;5093540;28;20028;-73
2023/10/14 09:27:13;;;;;;;11.05;4.80;;;;;;;20.58;39.13;94956.97;5075682;28;20038;-73
2023/10/14 09:29:39;;;;;;;10.07;4.60;;;;;;;20.71;39.32;94946.59;5075162;28;20024;-73
2023/10/14 09:32:05;;;;;;;10.65;4.63;;;;;;;20.71;39.20;94947.41;5093369;28;20039;-73
2023/10/14 09:34:30;;;;;;;16.05;5.63;;;;;;;20.94;38.68;94939.31;5092093;28;20028;-73
2023/10/14 09:36:56;;;;;;;9.55;4.88;;;;;;;20.96;37.94;94923.28;5093204;28;20482;-73
2023/10/14 09:39:24;;;;;;;7.47;4.65;;;;;;;21.08;38.00;94929.69;5074993;28;20036;-72
2023/10/14 09:41:53;;;;;;;8.57;4.50;;;;;;;20.94;38.31;94915.53;5091949;28;20527;-73
2023/10/14 09:44:20;;;;;;;12.52;5.07;;;;;;;20.95;38.29;94919.84;5075478;28;20028;-73
2023/10/14 09:46:45;;;;;;;8.35;4.30;;;;;;;21.02;38.44;94917.25;5075063;28;20033;-73
2023/10/14 09:49:11;;;;;;;11.98;4.70;;;;;;;21.01;38.35;94901.59;5074954;28;20462;-73
2023/10/14 09:51:36;;;;;;;11.57;4.40;;;;;;;21.06;37.90;94878.06;5074769;28;20028;-73
2023/10/14 09:54:03;;;;;;;9.82;4.30;;;;;;;21.22;37.55;94900.75;5058182;28;20038;-73
2023/10/14 09:56:29;;;;;;;9.88;4.43;;;;;;;21.36;37.38;94897.22;5091824;28;20116;-72
2023/10/14 09:58:54;;;;;;;6.97;4.18;;;;;;;21.40;36.89;94872.09;5091985;28;20028;-73
2023/10/14 10:01:20;;;;;;;9.13;3.83;;;;;;;21.39;37.00;94865.97;5091550;28;20498;-73
2023/10/14 10:03:48;;;;;;;8.65;4.22;;;;;;;21.41;37.41;94890.38;5074505;28;20024;-73
2023/10/14 10:06:25;;;;;;;10.45;3.42;;;;;;;21.56;37.30;94892.09;5058124;28;20031;-73
2023/10/14 10:09:21;;;;;;;7.95;3.13;;;;;;;21.30;37.20;94879.50;5092677;28;20545;-73
2023/10/14 10:11:50;;;;;;;7.72;3.72;;;;;;;21.42;37.43;94870.88;5092770;28;20059;-73
2023/10/14 10:14:24;;;;;;;8.57;3.88;;;;;;;21.50;37.63;94866.44;5074860;28;20024;-73
2023/10/14 10:16:54;;;;;;;8.40;3.70;;;;;;;21.49;37.72;94848.97;5074557;28;20461;-73
2023/10/14 10:19:23;;;;;;;10.10;3.38;;;;;;;21.55;37.76;94854.28;5074518;28;20457;-73
2023/10/14 10:22:17;;;;;;;12.57;3.50;;;;;;;21.62;36.88;94854.34;5074215;28;20056;-73
2023/10/14 10:24:44;;;;;;;9.85;3.50;;;;;;;21.52;36.62;94846.75;5092391;28;20478;-73
2023/10/14 10:27:14;;;;;;;7.90;3.50;;;;;;;21.67;37.07;94841.34;5091102;28;20035;-73
2023/10/14 10:29:43;;;;;;;9.18;3.50;;;;;;;21.79;36.46;94839.00;5092245;28;20039;-73
2023/10/14 10:32:33;;;;;;;7.32;3.20;;;;;;;21.94;37.80;94829.09;5074495;28;20039;-73
2023/10/14 10:35:05;;;;;;;7.22;3.60;;;;;;;21.90;36.71;94834.94;5085583;28;20450;-73
2023/10/14 10:37:46;;;;;;;11.20;3.90;;;;;;;21.83;36.45;94822.53;5092061;28;20032;-73
2023/10/14 10:40:12;;;;;;;8.90;3.47;;;;;;;21.96;36.33;94818.31;5090876;28;20460;-73
2023/10/14 10:42:44;;;;;;;9.65;4.00;;;;;;;21.93;35.83;94813.44;5090803;28;20057;-73
2023/10/14 10:45:15;;;;;;;8.00;3.53;;;;;;;22.04;36.15;94804.94;5074840;28;20024;-73
2023/10/14 10:47:45;;;;;;;9.82;3.92;;;;;;;22.05;35.44;94793.31;5073871;28;20571;-73
2023/10/14 10:50:14;;;;;;;7.63;3.30;;;;;;;22.12;35.69;94783.59;5073677;28;20077;-73
2023/10/14 10:52:40;;;;;;;6.88;3.50;;;;;;;22.16;35.87;94790.09;5073756;28;20401;-73
2023/10/14 10:55:06;;;;;;;7.38;3.38;;;;;;;22.32;35.87;94790.81;5090556;28;20174;-73
2023/10/14 10:57:32;;;;;;;5.25;3.42;;;;;;;22.28;35.51;94785.88;5090516;28;20032;-73
2023/10/14 10:59:58;;;;;;;9.63;3.65;;;;;;;22.30;35.29;94757.41;5073738;28;20024;-73
2023/10/14 11:02:24;;;;;;;7.00;4.03;;;;;;;22.52;35.39;94767.81;5056772;28;20452;-73
2023/10/14 11:04:49;;;;;;;8.18;3.70;;;;;;;22.57;35.69;94775.97;5091516;28;20101;-73
2023/10/14 11:07:14;;;;;;;6.00;3.50;;;;;;;;;;5090333;28;20036;-73
2023/10/14 11:09:40;;;;;;;7.27;3.70;;;;;;;22.53;35.50;94758.84;5091484;28;20060;-73
2023/10/14 11:12:09;;;;;;;9.68;3.90;;;;;;;22.87;34.48;94762.34;5091500;28;20036;-73
2023/10/14 11:14:35;;;;;;;6.93;3.70;;;;;;;22.72;34.89;94750.13;5089652;28;20039;-74
2023/10/14 11:17:00;;;;;;;8.07;3.40;;;;;;;22.77;34.62;94748.69;5073353;28;20032;-73
2023/10/14 11:19:26;;;;;;;5.78;3.10;;;;;;;22.82;34.85;94746.25;5073161;28;20406;-73
2023/10/14 11:21:52;;;;;;;9.38;3.08;;;;;;;23.03;33.85;94750.53;5073147;28;20448;-73
2023/10/14 11:24:18;;;;;;;9.40;3.40;;;;;;;23.19;34.37;94740.31;5073317;28;20028;-73
2023/10/14 11:26:44;;;;;;;5.13;3.20;;;;;;;23.11;34.39;94722.00;5073232;28;20041;-73
2023/10/14 11:29:13;;;;;;;7.05;3.40;;;;;;;23.34;33.76;94734.78;5090066;28;20024;-73
2023/10/14 11:31:39;;;;;;;8.98;3.17;;;;;;;23.19;33.50;94727.09;5073296;28;20036;-73
2023/10/14 11:34:05;;;;;;;6.07;3.38;;;;;;;23.11;34.03;94713.25;5073012;28;20056;-73
2023/10/14 11:36:30;;;;;;;9.85;3.47;;;;;;;22.92;33.69;94683.91;5073056;28;20035;-73
2023/10/14 11:38:58;;;;;;;8.48;3.60;;;;;;;23.30;33.93;94716.88;5089808;28;20050;-73
2023/10/14 11:41:27;;;;;;;5.72;3.50;;;;;;;23.29;34.70;94718.72;5089798;28;20040;-73
2023/10/14 11:43:53;;;;;;;7.20;3.10;;;;;;;23.30;33.95;94700.97;5073086;28;20067;-73
2023/10/14 11:46:18;;;;;;;5.82;3.05;;;;;;;23.55;33.04;94707.22;5089916;28;20548;-73
2023/10/14 11:48:45;;;;;;;6.45;3.28;;;;;;;23.45;33.10;94701.53;5090979;28;20043;-73
2023/10/14 11:51:15;;;;;;;6.03;3.00;;;;;;;23.41;33.55;94679.13;5073099;28;20036;-73
2023/10/14 11:53:44;;;;;;;7.38;3.60;;;;;;;23.66;33.01;94699.63;5089725;28;20043;-73
2023/10/14 11:56:13;;;;;;;8.00;3.53;;;;;;;23.81;32.89;94684.28;5089850;28;20032;-73
2023/10/14 11:58:40;;;;;;;10.70;3.50;;;;;;;23.79;33.17;94687.16;5073399;28;20056;-73
2023/10/14 12:01:05;;;;;;;6.20;3.08;;;;;;;23.89;33.16;94681.38;5089647;28;20510;-73